Pooletown, North Carolina
Current Conditions -  °F | °C
As of 9:35 AM on Wednesday 22 Oct 2014 (Local Time) from KVUJ Reporting Station
Clear Clear  
Wind Chill: 55°   Ceiling: Unl
Heat Index: 55°   Visibility: 10mi
Dew Point: 39°   Wind: 17mph
Humidity: 56%   Direction: 340°NNW
Pressure: 30.08"   Gusts: 25mph
Location:  35.534°N, 80.2631°W
Report Text: KVUJ 221335Z AUTO 34015G22KT 10SM CLR 13/04 A3008 RMK AO2 T01260040
Loading
Personal Weather Stations






























Interactive Weather Map
Tropical Storm Tracking
New forecast layout! Learn more

10-Day Weather Forecast

Advertisements
Track Severe Weather on mobile